sensor_id;sensor_type;location;lat;lon;timestamp;pressure;altitude;pressure_sealevel;temperature;humidity
69836;BME280;57132;51.972;4.450;2022-07-23T00:02:15;101967.91;;;14.63;100.00
69836;BME280;57132;51.972;4.450;2022-07-23T00:04:41;101969.84;;;14.61;100.00
69836;BME280;57132;51.972;4.450;2022-07-23T00:07:06;101964.47;;;14.61;100.00
69836;BME280;57132;51.972;4.450;2022-07-23T00:09:32;101954.69;;;14.60;100.00
69836;BME280;57132;51.972;4.450;2022-07-23T00:11:57;101950.50;;;14.56;100.00
69836;BME280;57132;51.972;4.450;2022-07-23T00:14:22;101946.44;;;14.50;100.00
69836;BME280;57132;51.972;4.450;2022-07-23T00:16:48;101940.59;;;14.43;100.00
69836;BME280;57132;51.972;4.450;2022-07-23T00:19:13;101941.22;;;14.34;100.00
69836;BME280;57132;51.972;4.450;2022-07-23T00:21:38;101933.59;;;14.28;100.00
69836;BME280;57132;51.972;4.450;2022-07-23T00:24:04;101933.03;;;14.23;100.00
69836;BME280;57132;51.972;4.450;2022-07-23T00:26:29;101942.28;;;14.19;100.00
69836;BME280;57132;51.972;4.450;2022-07-23T00:28:55;101938.09;;;14.15;100.00
69836;BME280;57132;51.972;4.450;2022-07-23T00:31:20;101937.44;;;14.11;100.00
69836;BME280;57132;51.972;4.450;2022-07-23T00:33:45;101930.44;;;14.09;100.00
69836;BME280;57132;51.972;4.450;2022-07-23T00:36:11;101934.09;;;14.08;100.00
69836;BME280;57132;51.972;4.450;2022-07-23T00:38:36;101927.09;;;14.05;100.00
69836;BME280;57132;51.972;4.450;2022-07-23T00:41:01;101925.28;;;14.06;100.00
69836;BME280;57132;51.972;4.450;2022-07-23T00:43:27;101924.41;;;14.05;100.00
69836;BME280;57132;51.972;4.450;2022-07-23T00:45:52;101919.94;;;14.06;100.00
69836;BME280;57132;51.972;4.450;2022-07-23T00:48:17;101917.97;;;14.08;100.00
69836;BME280;57132;51.972;4.450;2022-07-23T00:50:43;101924.00;;;14.11;100.00
69836;BME280;57132;51.972;4.450;2022-07-23T00:53:09;101917.47;;;14.15;100.00
69836;BME280;57132;51.972;4.450;2022-07-23T00:55:35;101921.53;;;14.21;100.00
69836;BME280;57132;51.972;4.450;2022-07-23T00:58:01;101920.47;;;14.23;100.00
69836;BME280;57132;51.972;4.450;2022-07-23T01:00:27;101919.41;;;14.26;100.00
69836;BME280;57132;51.972;4.450;2022-07-23T01:02:53;101912.88;;;14.30;100.00
69836;BME280;57132;51.972;4.450;2022-07-23T01:05:18;101909.31;;;14.30;100.00
69836;BME280;57132;51.972;4.450;2022-07-23T01:07:50;101912.00;;;14.30;100.00
69836;BME280;57132;51.972;4.450;2022-07-23T01:10:16;101903.06;;;14.29;100.00
69836;BME280;57132;51.972;4.450;2022-07-23T01:12:58;101902.22;;;14.28;100.00
69836;BME280;57132;51.972;4.450;2022-07-23T01:15:24;101907.69;;;14.27;100.00
69836;BME280;57132;51.972;4.450;2022-07-23T01:17:50;101919.41;;;14.26;100.00
69836;BME280;57132;51.972;4.450;2022-07-23T01:20:16;101918.56;;;14.25;100.00
69836;BME280;57132;51.972;4.450;2022-07-23T01:22:42;101925.72;;;14.25;100.00
69836;BME280;57132;51.972;4.450;2022-07-23T01:25:08;101916.16;;;14.21;100.00
69836;BME280;57132;51.972;4.450;2022-07-23T01:27:33;101912.75;;;14.19;100.00
69836;BME280;57132;51.972;4.450;2022-07-23T01:30:00;101914.66;;;14.17;100.00
69836;BME280;57132;51.972;4.450;2022-07-23T01:32:25;101907.78;;;14.13;100.00
69836;BME280;57132;51.972;4.450;2022-07-23T01:34:50;101907.91;;;14.11;100.00
69836;BME280;57132;51.972;4.450;2022-07-23T01:37:16;101905.41;;;14.08;100.00
69836;BME280;57132;51.972;4.450;2022-07-23T01:39:41;101907.44;;;14.05;100.00
69836;BME280;57132;51.972;4.450;2022-07-23T01:42:06;101908.63;;;14.00;100.00
69836;BME280;57132;51.972;4.450;2022-07-23T01:44:32;101916.03;;;13.97;100.00
69836;BME280;57132;51.972;4.450;2022-07-23T01:46:57;101916.13;;;13.95;100.00
69836;BME280;57132;51.972;4.450;2022-07-23T01:49:22;101917.19;;;13.93;100.00
69836;BME280;57132;51.972;4.450;2022-07-23T01:51:48;101916.44;;;13.91;100.00
69836;BME280;57132;51.972;4.450;2022-07-23T01:54:29;101912.25;;;13.87;100.00
69836;BME280;57132;51.972;4.450;2022-07-23T01:56:55;101913.31;;;13.84;100.00
69836;BME280;57132;51.972;4.450;2022-07-23T01:59:21;101914.38;;;13.82;100.00
69836;BME280;57132;51.972;4.450;2022-07-23T02:01:47;101909.44;;;13.75;100.00
69836;BME280;57132;51.972;4.450;2022-07-23T02:04:12;101904.38;;;13.71;100.00
69836;BME280;57132;51.972;4.450;2022-07-23T02:06:38;101898.91;;;13.72;100.00
69836;BME280;57132;51.972;4.450;2022-07-23T02:09:03;101901.91;;;13.68;100.00
69836;BME280;57132;51.972;4.450;2022-07-23T02:11:29;101904.03;;;13.63;100.00
69836;BME280;57132;51.972;4.450;2022-07-23T02:13:54;101908.06;;;13.56;100.00
69836;BME280;57132;51.972;4.450;2022-07-23T02:16:19;101914.59;;;13.51;100.00
69836;BME280;57132;51.972;4.450;2022-07-23T02:18:44;101900.72;;;13.45;100.00
69836;BME280;57132;51.972;4.450;2022-07-23T02:21:12;101899.31;;;13.39;100.00
69836;BME280;57132;51.972;4.450;2022-07-23T02:23:37;101900.50;;;13.35;100.00
69836;BME280;57132;51.972;4.450;2022-07-23T02:26:02;101906.16;;;13.31;100.00
69836;BME280;57132;51.972;4.450;2022-07-23T02:28:28;101915.44;;;13.25;100.00
69836;BME280;57132;51.972;4.450;2022-07-23T02:30:53;101914.75;;;13.21;100.00
69836;BME280;57132;51.972;4.450;2022-07-23T02:33:18;101908.94;;;13.15;100.00
69836;BME280;57132;51.972;4.450;2022-07-23T02:35:44;101919.19;;;13.08;100.00
69836;BME280;57132;51.972;4.450;2022-07-23T02:38:10;101912.31;;;13.04;100.00
69836;BME280;57132;51.972;4.450;2022-07-23T02:40:35;101917.75;;;13.02;100.00
69836;BME280;57132;51.972;4.450;2022-07-23T02:43:01;101912.78;;;12.96;100.00
69836;BME280;57132;51.972;4.450;2022-07-23T02:45:26;101921.88;;;12.94;100.00
69836;BME280;57132;51.972;4.450;2022-07-23T02:47:51;101924.56;;;12.94;100.00
69836;BME280;57132;51.972;4.450;2022-07-23T02:50:17;101929.25;;;12.90;100.00
69836;BME280;57132;51.972;4.450;2022-07-23T02:52:42;101926.56;;;12.90;100.00
69836;BME280;57132;51.972;4.450;2022-07-23T02:55:08;101923.88;;;12.90;100.00
69836;BME280;57132;51.972;4.450;2022-07-23T02:57:33;101922.09;;;12.91;100.00
69836;BME280;57132;51.972;4.450;2022-07-23T02:59:58;101915.97;;;12.89;100.00
69836;BME280;57132;51.972;4.450;2022-07-23T03:02:24;101915.28;;;12.85;100.00
69836;BME280;57132;51.972;4.450;2022-07-23T03:04:49;101917.47;;;12.78;100.00
69836;BME280;57132;51.972;4.450;2022-07-23T03:07:16;101921.53;;;12.71;100.00
69836;BME280;57132;51.972;4.450;2022-07-23T03:09:41;101918.25;;;12.66;100.00
69836;BME280;57132;51.972;4.450;2022-07-23T03:12:07;101921.03;;;12.65;100.00
69836;BME280;57132;51.972;4.450;2022-07-23T03:14:32;101918.47;;;12.63;100.00
69836;BME280;57132;51.972;4.450;2022-07-23T03:16:58;101917.50;;;12.64;100.00
69836;BME280;57132;51.972;4.450;2022-07-23T03:19:25;101922.19;;;12.61;100.00
69836;BME280;57132;51.972;4.450;2022-07-23T03:21:50;101924.88;;;12.61;100.00
69836;BME280;57132;51.972;4.450;2022-07-23T03:24:15;101921.31;;;12.60;100.00
69836;BME280;57132;51.972;4.450;2022-07-23T03:26:43;101923.16;;;12.60;100.00
69836;BME280;57132;51.972;4.450;2022-07-23T03:29:09;101917.88;;;12.58;100.00
69836;BME280;57132;51.972;4.450;2022-07-23T03:31:34;101916.34;;;12.54;100.00
69836;BME280;57132;51.972;4.450;2022-07-23T03:34:00;101919.97;;;12.53;100.00
69836;BME280;57132;51.972;4.450;2022-07-23T03:36:25;101921.03;;;12.50;100.00
69836;BME280;57132;51.972;4.450;2022-07-23T03:38:51;101923.81;;;12.49;100.00
69836;BME280;57132;51.972;4.450;2022-07-23T03:41:17;101927.34;;;12.49;100.00
69836;BME280;57132;51.972;4.450;2022-07-23T03:43:43;101932.59;;;12.51;100.00
69836;BME280;57132;51.972;4.450;2022-07-23T03:46:08;101941.28;;;12.54;100.00
69836;BME280;57132;51.972;4.450;2022-07-23T03:48:34;101936.72;;;12.57;100.00
69836;BME280;57132;51.972;4.450;2022-07-23T03:51:00;101937.41;;;12.60;100.00
69836;BME280;57132;51.972;4.450;2022-07-23T03:53:25;101935.47;;;12.62;100.00
69836;BME280;57132;51.972;4.450;2022-07-23T03:55:50;101939.00;;;12.63;100.00
69836;BME280;57132;51.972;4.450;2022-07-23T03:58:16;101936.81;;;12.55;100.00
69836;BME280;57132;51.972;4.450;2022-07-23T04:00:41;101936.34;;;12.48;100.00
69836;BME280;57132;51.972;4.450;2022-07-23T04:03:06;101945.47;;;12.30;100.00
69836;BME280;57132;51.972;4.450;2022-07-23T04:05:32;101950.03;;;12.14;100.00
69836;BME280;57132;51.972;4.450;2022-07-23T04:07:57;101939.03;;;12.04;100.00
69836;BME280;57132;51.972;4.450;2022-07-23T04:10:22;101944.56;;;12.01;100.00
69836;BME280;57132;51.972;4.450;2022-07-23T04:12:48;101947.22;;;12.01;100.00
69836;BME280;57132;51.972;4.450;2022-07-23T04:15:13;101951.44;;;12.05;100.00
69836;BME280;57132;51.972;4.450;2022-07-23T04:17:38;101947.53;;;12.11;100.00
69836;BME280;57132;51.972;4.450;2022-07-23T04:20:04;101944.31;;;12.20;100.00
69836;BME280;57132;51.972;4.450;2022-07-23T04:22:30;101951.63;;;12.32;100.00
69836;BME280;57132;51.972;4.450;2022-07-23T04:24:55;101941.00;;;12.45;100.00
69836;BME280;57132;51.972;4.450;2022-07-23T04:27:20;101944.84;;;12.55;100.00
69836;BME280;57132;51.972;4.450;2022-07-23T04:29:45;101946.69;;;12.69;100.00
69836;BME280;57132;51.972;4.450;2022-07-23T04:32:11;101941.59;;;12.78;100.00
69836;BME280;57132;51.972;4.450;2022-07-23T04:34:36;101938.25;;;12.89;100.00
69836;BME280;57132;51.972;4.450;2022-07-23T04:37:01;101935.75;;;13.00;100.00
69836;BME280;57132;51.972;4.450;2022-07-23T04:39:27;101941.69;;;13.05;100.00
69836;BME280;57132;51.972;4.450;2022-07-23T04:41:52;101940.53;;;13.10;100.00
69836;BME280;57132;51.972;4.450;2022-07-23T04:44:17;101939.59;;;13.11;100.00
69836;BME280;57132;51.972;4.450;2022-07-23T04:46:43;101950.94;;;13.14;100.00
69836;BME280;57132;51.972;4.450;2022-07-23T04:49:08;101953.34;;;13.19;100.00
69836;BME280;57132;51.972;4.450;2022-07-23T04:51:33;101954.69;;;13.26;100.00
69836;BME280;57132;51.972;4.450;2022-07-23T04:53:59;101951.63;;;13.32;100.00
69836;BME280;57132;51.972;4.450;2022-07-23T04:56:24;101954.13;;;13.35;100.00
69836;BME280;57132;51.972;4.450;2022-07-23T04:58:49;101964.47;;;13.27;100.00
69836;BME280;57132;51.972;4.450;2022-07-23T05:01:15;101954.91;;;13.23;100.00
69836;BME280;57132;51.972;4.450;2022-07-23T05:03:40;101959.66;;;13.18;100.00
69836;BME280;57132;51.972;4.450;2022-07-23T05:06:05;101956.91;;;13.19;100.00
69836;BME280;57132;51.972;4.450;2022-07-23T05:08:31;101951.63;;;13.32;100.00
69836;BME280;57132;51.972;4.450;2022-07-23T05:10:56;101955.59;;;13.53;100.00
69836;BME280;57132;51.972;4.450;2022-07-23T05:13:22;101952.47;;;13.74;100.00
69836;BME280;57132;51.972;4.450;2022-07-23T05:15:47;101946.63;;;13.94;100.00
69836;BME280;57132;51.972;4.450;2022-07-23T05:18:12;101951.38;;;14.03;100.00
69836;BME280;57132;51.972;4.450;2022-07-23T05:20:38;101952.91;;;14.20;100.00
69836;BME280;57132;51.972;4.450;2022-07-23T05:23:03;101951.66;;;14.39;100.00
69836;BME280;57132;51.972;4.450;2022-07-23T05:25:29;101956.19;;;14.64;100.00
69836;BME280;57132;51.972;4.450;2022-07-23T05:27:54;101954.56;;;14.99;100.00
69836;BME280;57132;51.972;4.450;2022-07-23T05:30:20;101957.94;;;15.27;100.00
69836;BME280;57132;51.972;4.450;2022-07-23T05:32:45;101968.78;;;15.75;100.00
69836;BME280;57132;51.972;4.450;2022-07-23T05:35:11;101960.41;;;16.26;100.00
69836;BME280;57132;51.972;4.450;2022-07-23T05:37:36;101961.28;;;16.84;100.00
69836;BME280;57132;51.972;4.450;2022-07-23T05:40:07;101974.03;;;17.27;100.00
69836;BME280;57132;51.972;4.450;2022-07-23T05:42:34;101974.25;;;17.47;96.28
69836;BME280;57132;51.972;4.450;2022-07-23T05:45:00;101977.41;;;17.63;93.41
69836;BME280;57132;51.972;4.450;2022-07-23T05:47:25;101981.25;;;17.92;93.34
69836;BME280;57132;51.972;4.450;2022-07-23T05:49:50;101983.13;;;18.13;91.59
69836;BME280;57132;51.972;4.450;2022-07-23T05:52:16;101975.47;;;18.50;90.90
69836;BME280;57132;51.972;4.450;2022-07-23T05:54:41;101977.22;;;18.61;89.63
69836;BME280;57132;51.972;4.450;2022-07-23T05:57:06;101974.97;;;18.87;88.27
69836;BME280;57132;51.972;4.450;2022-07-23T05:59:32;101977.50;;;19.09;86.40
69836;BME280;57132;51.972;4.450;2022-07-23T06:01:57;101976.44;;;19.31;82.05
69836;BME280;57132;51.972;4.450;2022-07-23T06:04:22;101976.91;;;19.46;80.92
69836;BME280;57132;51.972;4.450;2022-07-23T06:06:48;101985.53;;;19.71;79.09
69836;BME280;57132;51.972;4.450;2022-07-23T06:09:13;101984.56;;;19.91;79.84
69836;BME280;57132;51.972;4.450;2022-07-23T06:11:39;101989.56;;;20.15;76.47
69836;BME280;57132;51.972;4.450;2022-07-23T06:14:05;101992.56;;;20.12;76.99
69836;BME280;57132;51.972;4.450;2022-07-23T06:16:31;101986.41;;;20.29;76.34
69836;BME280;57132;51.972;4.450;2022-07-23T06:18:56;101978.56;;;20.36;76.31
69836;BME280;57132;51.972;4.450;2022-07-23T06:21:21;101975.41;;;20.41;73.54
69836;BME280;57132;51.972;4.450;2022-07-23T06:23:47;101976.56;;;20.48;72.47
69836;BME280;57132;51.972;4.450;2022-07-23T06:26:12;101969.09;;;20.69;73.68
69836;BME280;57132;51.972;4.450;2022-07-23T06:28:37;101976.97;;;20.72;71.89
69836;BME280;57132;51.972;4.450;2022-07-23T06:31:03;101977.84;;;20.63;73.75
69836;BME280;57132;51.972;4.450;2022-07-23T06:33:28;101981.69;;;20.60;74.67
69836;BME280;57132;51.972;4.450;2022-07-23T06:35:53;101990.25;;;20.46;71.69
69836;BME280;57132;51.972;4.450;2022-07-23T06:38:19;101980.81;;;20.70;70.59
69836;BME280;57132;51.972;4.450;2022-07-23T06:40:44;101989.38;;;20.75;71.12
69836;BME280;57132;51.972;4.450;2022-07-23T06:43:10;101982.56;;;20.98;69.12
69836;BME280;57132;51.972;4.450;2022-07-23T06:45:35;101987.25;;;20.69;68.86
69836;BME280;57132;51.972;4.450;2022-07-23T06:48:01;101982.38;;;20.72;70.82
69836;BME280;57132;51.972;4.450;2022-07-23T06:50:28;101971.41;;;21.01;70.48
69836;BME280;57132;51.972;4.450;2022-07-23T06:52:53;101975.16;;;21.28;68.05
69836;BME280;57132;51.972;4.450;2022-07-23T06:55:19;101979.44;;;21.30;66.45
69836;BME280;57132;51.972;4.450;2022-07-23T06:57:44;101981.38;;;21.48;69.86
69836;BME280;57132;51.972;4.450;2022-07-23T07:00:10;101986.03;;;21.55;67.65
69836;BME280;57132;51.972;4.450;2022-07-23T07:02:36;101993.28;;;22.00;64.74
69836;BME280;57132;51.972;4.450;2022-07-23T07:05:02;101990.22;;;22.31;64.97
69836;BME280;57132;51.972;4.450;2022-07-23T07:07:27;101997.34;;;22.32;64.26
69836;BME280;57132;51.972;4.450;2022-07-23T07:09:53;102002.22;;;21.93;65.77
69836;BME280;57132;51.972;4.450;2022-07-23T07:12:18;101991.63;;;21.54;66.01
69836;BME280;57132;51.972;4.450;2022-07-23T07:14:44;101998.31;;;21.22;69.40
69836;BME280;57132;51.972;4.450;2022-07-23T07:17:09;101993.28;;;21.00;68.51
69836;BME280;57132;51.972;4.450;2022-07-23T07:19:36;102004.03;;;20.92;67.24
69836;BME280;57132;51.972;4.450;2022-07-23T07:22:01;102001.38;;;20.72;69.72
69836;BME280;57132;51.972;4.450;2022-07-23T07:24:27;102002.97;;;20.65;70.40
69836;BME280;57132;51.972;4.450;2022-07-23T07:26:52;101994.41;;;20.50;71.10
69836;BME280;57132;51.972;4.450;2022-07-23T07:29:17;102002.72;;;20.49;71.31
69836;BME280;57132;51.972;4.450;2022-07-23T07:31:43;102002.06;;;20.74;69.78
69836;BME280;57132;51.972;4.450;2022-07-23T07:34:08;102002.78;;;21.13;71.84
69836;BME280;57132;51.972;4.450;2022-07-23T07:36:33;102015.31;;;21.34;67.03
69836;BME280;57132;51.972;4.450;2022-07-23T07:39:01;102010.34;;;21.57;67.74
69836;BME280;57132;51.972;4.450;2022-07-23T07:41:26;102014.41;;;21.89;66.40
69836;BME280;57132;51.972;4.450;2022-07-23T07:43:51;102016.84;;;22.09;66.58
69836;BME280;57132;51.972;4.450;2022-07-23T07:46:17;102018.25;;;21.96;63.74
69836;BME280;57132;51.972;4.450;2022-07-23T07:48:42;102022.06;;;22.03;62.43
69836;BME280;57132;51.972;4.450;2022-07-23T07:51:08;102028.94;;;21.97;63.94
69836;BME280;57132;51.972;4.450;2022-07-23T07:53:33;102031.91;;;22.04;63.07
69836;BME280;57132;51.972;4.450;2022-07-23T07:55:58;102025.03;;;22.09;64.06
69836;BME280;57132;51.972;4.450;2022-07-23T07:58:24;102025.56;;;22.13;62.46
69836;BME280;57132;51.972;4.450;2022-07-23T08:00:49;102023.22;;;22.00;61.72
69836;BME280;57132;51.972;4.450;2022-07-23T08:03:14;102020.28;;;21.94;63.39
69836;BME280;57132;51.972;4.450;2022-07-23T08:05:40;102022.44;;;22.08;63.76
69836;BME280;57132;51.972;4.450;2022-07-23T08:08:05;102026.56;;;22.12;63.16
69836;BME280;57132;51.972;4.450;2022-07-23T08:10:34;102029.28;;;22.12;61.74
69836;BME280;57132;51.972;4.450;2022-07-23T08:13:00;102031.63;;;22.07;63.10
69836;BME280;57132;51.972;4.450;2022-07-23T08:15:28;102027.88;;;22.08;63.29
69836;BME280;57132;51.972;4.450;2022-07-23T08:17:54;102024.00;;;22.28;61.83
69836;BME280;57132;51.972;4.450;2022-07-23T08:20:21;102031.25;;;22.20;62.08
69836;BME280;57132;51.972;4.450;2022-07-23T08:23:13;102030.75;;;22.06;61.58
69836;BME280;57132;51.972;4.450;2022-07-23T08:25:41;102039.34;;;22.29;63.37
69836;BME280;57132;51.972;4.450;2022-07-23T08:28:09;102045.16;;;22.34;64.29
69836;BME280;57132;51.972;4.450;2022-07-23T08:30:36;102033.50;;;22.24;64.59
69836;BME280;57132;51.972;4.450;2022-07-23T08:33:06;102036.44;;;22.13;64.05
69836;BME280;57132;51.972;4.450;2022-07-23T08:35:36;102026.56;;;22.12;64.94
69836;BME280;57132;51.972;4.450;2022-07-23T08:38:05;102025.47;;;22.05;63.94
69836;BME280;57132;51.972;4.450;2022-07-23T08:40:34;102026.78;;;22.01;61.91
69836;BME280;57132;51.972;4.450;2022-07-23T08:43:06;102034.50;;;22.05;60.94
69836;BME280;57132;51.972;4.450;2022-07-23T08:45:36;102025.44;;;22.15;62.07
69836;BME280;57132;51.972;4.450;2022-07-23T08:48:02;102026.44;;;22.31;64.59
69836;BME280;57132;51.972;4.450;2022-07-23T08:50:28;102030.28;;;22.11;60.76
69836;BME280;57132;51.972;4.450;2022-07-23T08:52:54;102038.84;;;22.16;59.60
69836;BME280;57132;51.972;4.450;2022-07-23T08:55:21;102043.06;;;22.28;62.37
69836;BME280;57132;51.972;4.450;2022-07-23T08:57:48;102038.22;;;22.40;62.91
69836;BME280;57132;51.972;4.450;2022-07-23T09:00:14;102048.13;;;22.41;61.42
69836;BME280;57132;51.972;4.450;2022-07-23T09:02:41;102044.59;;;22.49;62.86
69836;BME280;57132;51.972;4.450;2022-07-23T09:05:08;102047.72;;;22.54;60.46
69836;BME280;57132;51.972;4.450;2022-07-23T09:07:34;102047.22;;;22.58;64.97
69836;BME280;57132;51.972;4.450;2022-07-23T09:10:09;102046.53;;;22.21;60.05
69836;BME280;57132;51.972;4.450;2022-07-23T09:12:36;102044.09;;;22.00;62.25
69836;BME280;57132;51.972;4.450;2022-07-23T09:15:06;102045.06;;;21.63;61.94
69836;BME280;57132;51.972;4.450;2022-07-23T09:17:41;102048.97;;;21.78;62.65
69836;BME280;57132;51.972;4.450;2022-07-23T09:20:11;102048.56;;;21.46;62.96
69836;BME280;57132;51.972;4.450;2022-07-23T09:22:37;102045.78;;;21.28;62.96
69836;BME280;57132;51.972;4.450;2022-07-23T09:25:15;102043.47;;;21.43;63.79
69836;BME280;57132;51.972;4.450;2022-07-23T09:27:58;102035.84;;;21.74;64.01
69836;BME280;57132;51.972;4.450;2022-07-23T09:30:26;102043.75;;;21.67;63.61
69836;BME280;57132;51.972;4.450;2022-07-23T09:33:11;102040.41;;;21.73;59.36
69836;BME280;57132;51.972;4.450;2022-07-23T09:36:03;102045.34;;;21.88;58.56
69836;BME280;57132;51.972;4.450;2022-07-23T09:38:28;102044.41;;;21.97;59.35
69836;BME280;57132;51.972;4.450;2022-07-23T09:41:07;102044.88;;;21.92;57.67
69836;BME280;57132;51.972;4.450;2022-07-23T09:43:33;102045.38;;;22.05;57.19
69836;BME280;57132;51.972;4.450;2022-07-23T09:46:24;102045.72;;;22.64;57.23
69836;BME280;57132;51.972;4.450;2022-07-23T09:48:52;102045.34;;;23.03;55.80
69836;BME280;57132;51.972;4.450;2022-07-23T09:51:18;102050.94;;;22.75;53.86
69836;BME280;57132;51.972;4.450;2022-07-23T09:54:02;102050.63;;;22.61;54.65
69836;BME280;57132;51.972;4.450;2022-07-23T09:56:28;102054.69;;;22.56;55.38
69836;BME280;57132;51.972;4.450;2022-07-23T09:58:54;102054.16;;;22.53;54.95
69836;BME280;57132;51.972;4.450;2022-07-23T10:01:53;102053.09;;;22.46;57.10
69836;BME280;57132;51.972;4.450;2022-07-23T10:04:21;102052.38;;;22.44;56.00
69836;BME280;57132;51.972;4.450;2022-07-23T10:06:46;102054.38;;;22.59;57.89
69836;BME280;57132;51.972;4.450;2022-07-23T10:09:16;102058.00;;;22.68;55.78
69836;BME280;57132;51.972;4.450;2022-07-23T10:11:42;102056.31;;;22.67;54.73
69836;BME280;57132;51.972;4.450;2022-07-23T10:14:07;102050.81;;;22.59;56.11
69836;BME280;57132;51.972;4.450;2022-07-23T10:16:33;102054.47;;;22.50;56.05
69836;BME280;57132;51.972;4.450;2022-07-23T10:18:59;102051.75;;;22.50;57.85
69836;BME280;57132;51.972;4.450;2022-07-23T10:21:40;102047.09;;;22.42;56.89
69836;BME280;57132;51.972;4.450;2022-07-23T10:24:34;102052.47;;;22.34;60.20
69836;BME280;57132;51.972;4.450;2022-07-23T10:27:14;102049.09;;;22.40;59.04
69836;BME280;57132;51.972;4.450;2022-07-23T10:29:55;102047.00;;;22.52;59.89
69836;BME280;57132;51.972;4.450;2022-07-23T10:35:29;102041.63;;;22.60;58.41
69836;BME280;57132;51.972;4.450;2022-07-23T10:38:07;102039.56;;;22.54;58.17
69836;BME280;57132;51.972;4.450;2022-07-23T10:40:35;102048.78;;;22.61;59.14
69836;BME280;57132;51.972;4.450;2022-07-23T10:43:01;102039.31;;;22.65;59.25
69836;BME280;57132;51.972;4.450;2022-07-23T10:45:30;102026.78;;;22.54;57.71
69836;BME280;57132;51.972;4.450;2022-07-23T10:48:12;102034.22;;;22.26;57.88
69836;BME280;57132;51.972;4.450;2022-07-23T10:50:39;102030.16;;;22.30;58.81
69836;BME280;57132;51.972;4.450;2022-07-23T10:53:17;102028.53;;;22.38;58.44
69836;BME280;57132;51.972;4.450;2022-07-23T10:55:49;102032.16;;;22.46;56.36
69836;BME280;57132;51.972;4.450;2022-07-23T10:58:22;102034.84;;;22.64;60.92
69836;BME280;57132;51.972;4.450;2022-07-23T11:00:48;102033.88;;;22.91;62.67
69836;BME280;57132;51.972;4.450;2022-07-23T11:03:34;102033.16;;;22.89;58.09
69836;BME280;57132;51.972;4.450;2022-07-23T11:06:05;102033.63;;;22.84;57.67
69836;BME280;57132;51.972;4.450;2022-07-23T11:08:30;102031.25;;;22.81;57.50
69836;BME280;57132;51.972;4.450;2022-07-23T11:11:08;102027.69;;;22.81;56.12
69836;BME280;57132;51.972;4.450;2022-07-23T11:13:44;102029.00;;;22.77;58.23
69836;BME280;57132;51.972;4.450;2022-07-23T11:16:21;102029.00;;;22.77;58.14
69836;BME280;57132;51.972;4.450;2022-07-23T11:31:56;102017.25;;;23.28;58.91
69836;BME280;57132;51.972;4.450;2022-07-23T11:37:09;102018.16;;;23.45;58.80
69836;BME280;57132;51.972;4.450;2022-07-23T11:39:35;102019.00;;;23.46;57.39
69836;BME280;57132;51.972;4.450;2022-07-23T11:42:02;102017.84;;;23.48;56.96
69836;BME280;57132;51.972;4.450;2022-07-23T11:44:34;102010.28;;;23.68;59.82
69836;BME280;57132;51.972;4.450;2022-07-23T11:47:02;102009.97;;;23.88;58.28
69836;BME280;57132;51.972;4.450;2022-07-23T11:49:29;102012.38;;;24.15;56.88
69836;BME280;57132;51.972;4.450;2022-07-23T11:54:33;102004.72;;;24.11;53.23
69836;BME280;57132;51.972;4.450;2022-07-23T11:57:00;101999.63;;;24.16;55.25
69836;BME280;57132;51.972;4.450;2022-07-23T11:59:27;102001.84;;;24.28;53.96
69836;BME280;57132;51.972;4.450;2022-07-23T12:01:58;101999.94;;;24.37;52.81
69836;BME280;57132;51.972;4.450;2022-07-23T12:04:28;102004.06;;;24.41;51.45
69836;BME280;57132;51.972;4.450;2022-07-23T12:07:21;102005.09;;;24.40;53.77
69836;BME280;57132;51.972;4.450;2022-07-23T12:09:47;102004.25;;;24.40;55.00
69836;BME280;57132;51.972;4.450;2022-07-23T12:12:13;101998.59;;;24.25;52.91
69836;BME280;57132;51.972;4.450;2022-07-23T12:14:54;101996.00;;;24.15;54.30
69836;BME280;57132;51.972;4.450;2022-07-23T12:17:20;101998.59;;;24.09;55.59
69836;BME280;57132;51.972;4.450;2022-07-23T12:19:47;102006.59;;;24.10;55.67
69836;BME280;57132;51.972;4.450;2022-07-23T12:22:13;101996.00;;;24.07;55.80
69836;BME280;57132;51.972;4.450;2022-07-23T12:24:59;102001.63;;;24.05;54.06
69836;BME280;57132;51.972;4.450;2022-07-23T12:27:26;101998.91;;;24.05;57.13
69836;BME280;57132;51.972;4.450;2022-07-23T12:29:52;101997.72;;;23.92;55.11
69836;BME280;57132;51.972;4.450;2022-07-23T12:32:28;101999.75;;;23.98;55.38
69836;BME280;57132;51.972;4.450;2022-07-23T12:35:08;102003.19;;;24.08;54.96
69836;BME280;57132;51.972;4.450;2022-07-23T12:37:39;102000.59;;;23.90;53.48
69836;BME280;57132;51.972;4.450;2022-07-23T12:40:23;101992.28;;;24.00;54.27
69836;BME280;57132;51.972;4.450;2022-07-23T12:42:55;101990.91;;;23.88;55.46
69836;BME280;57132;51.972;4.450;2022-07-23T12:45:21;102001.09;;;23.86;54.00
69836;BME280;57132;51.972;4.450;2022-07-23T12:50:38;101994.78;;;23.69;55.57
69836;BME280;57132;51.972;4.450;2022-07-23T12:53:15;101996.81;;;23.75;55.40
69836;BME280;57132;51.972;4.450;2022-07-23T12:55:42;101996.94;;;23.65;55.25
69836;BME280;57132;51.972;4.450;2022-07-23T12:58:19;101992.50;;;23.56;55.30
69836;BME280;57132;51.972;4.450;2022-07-23T13:03:35;101986.63;;;23.43;56.53
69836;BME280;57132;51.972;4.450;2022-07-23T13:06:02;101993.97;;;23.42;60.51
69836;BME280;57132;51.972;4.450;2022-07-23T13:08:29;101991.72;;;23.29;60.48
69836;BME280;57132;51.972;4.450;2022-07-23T13:10:55;101988.13;;;23.29;60.18
69836;BME280;57132;51.972;4.450;2022-07-23T13:13:25;101985.13;;;23.40;59.91
69836;BME280;57132;51.972;4.450;2022-07-23T13:15:52;101980.88;;;23.54;58.44